Time,TemperatureF,DewpointF,PressureIn,WindDirection,WindDirectionDegrees,WindSpeedMPH,WindSpeedGustMPH,Humidity,HourlyPrecipIn,Conditions,Clouds,dailyrainin,SoftwareType,DateUTC
2013-06-19 00:01:00,74.3,73.0,29.91,SW,222,0.0,1.0,96,0.00,,,0.00,weatherlink.com 1.10,2013-06-19 04:01:00,
2013-06-19 00:16:00,74.9,74.0,29.91,WSW,240,0.0,3.0,97,0.00,,,0.00,weatherlink.com 1.10,2013-06-19 04:16:00,
2013-06-19 00:31:00,75.5,75.0,29.91,NNE,15,0.0,2.0,97,0.00,,,0.00,weatherlink.com 1.10,2013-06-19 04:31:00,
2013-06-19 00:46:00,76.0,75.0,29.91,WNW,303,0.0,1.0,97,0.00,,,0.00,weatherlink.com 1.10,2013-06-19 04:46:00,
2013-06-19 01:01:00,76.2,75.0,29.91,SSE,156,0.0,1.0,97,0.00,,,0.00,weatherlink.com 1.10,2013-06-19 05:01:00,
2013-06-19 01:16:00,76.6,76.0,29.90,ESE,104,0.0,2.0,97,0.00,,,0.00,weatherlink.com 1.10,2013-06-19 05:16:00,
2013-06-19 01:31:00,77.0,76.0,29.90,East,84,0.0,1.0,97,0.00,,,0.00,weatherlink.com 1.10,2013-06-19 05:31:00,
2013-06-19 01:46:00,77.4,76.0,29.90,SSW,213,0.0,3.0,96,0.00,,,0.00,weatherlink.com 1.10,2013-06-19 05:46:00,
2013-06-19 02:01:00,77.5,76.0,29.90,NNE,17,0.0,1.0,96,0.00,,,0.00,weatherlink.com 1.10,2013-06-19 06:01:00,
2013-06-19 02:16:00,77.4,76.0,29.90,North,359,0.0,2.0,96,0.00,,,0.00,weatherlink.com 1.10,2013-06-19 06:16:00,
2013-06-19 02:31:00,77.3,76.0,29.90,North,10,0.0,1.0,96,0.00,,,0.00,weatherlink.com 1.10,2013-06-19 06:31:00,
2013-06-19 02:46:00,77.2,76.0,29.90,NE,54,1.0,1.0,97,0.00,,,0.00,weatherlink.com 1.10,2013-06-19 06:46:00,
2013-06-19 03:01:00,77.0,76.0,29.89,ENE,78,0.0,1.0,97,0.00,,,0.00,weatherlink.com 1.10,2013-06-19 07:01:00,
2013-06-19 03:16:00,77.0,76.0,29.89,NW,319,0.0,1.0,97,0.00,,,0.00,weatherlink.com 1.10,2013-06-19 07:16:00,
2013-06-19 03:31:00,76.9,76.0,29.89,NE,43,0.0,1.0,97,0.00,,,0.00,weatherlink.com 1.10,2013-06-19 07:31:00,
2013-06-19 03:46:00,76.9,76.0,29.89,NW,325,0.0,2.0,97,0.00,,,0.00,weatherlink.com 1.10,2013-06-19 07:46:00,
2013-06-19 04:01:00,76.8,76.0,29.89,SW,229,0.0,1.0,97,0.00,,,0.00,weatherlink.com 1.10,2013-06-19 08:01:00,
2013-06-19 04:16:00,76.6,76.0,29.90,SW,229,0.0,0.0,98,0.00,,,0.00,weatherlink.com 1.10,2013-06-19 08:16:00,
2013-06-19 04:31:00,76.6,76.0,29.90,WSW,239,0.0,1.0,98,0.00,,,0.00,weatherlink.com 1.10,2013-06-19 08:31:00,
2013-06-19 04:46:00,77.0,76.0,29.90,WNW,296,0.0,4.0,96,0.00,,,0.00,weatherlink.com 1.10,2013-06-19 08:46:00,
2013-06-19 05:01:00,77.0,76.0,29.90,WSW,255,0.0,1.0,96,0.00,,,0.00,weatherlink.com 1.10,2013-06-19 09:01:00,
2013-06-19 05:16:00,76.9,75.0,29.91,West,281,0.0,3.0,95,0.00,,,0.00,weatherlink.com 1.10,2013-06-19 09:16:00,
2013-06-19 05:31:00,76.9,75.0,29.91,West,272,0.0,3.0,94,0.00,,,0.00,weatherlink.com 1.10,2013-06-19 09:31:00,
2013-06-19 05:46:00,76.6,75.0,29.92,West,273,1.0,3.0,93,0.00,,,0.00,weatherlink.com 1.10,2013-06-19 09:46:00,
2013-06-19 06:01:00,76.3,74.0,29.92,NNW,346,1.0,1.0,93,0.00,,,0.00,weatherlink.com 1.10,2013-06-19 10:01:00,
2013-06-19 06:16:00,76.1,74.0,29.92,West,279,0.0,3.0,93,0.00,,,0.00,weatherlink.com 1.10,2013-06-19 10:16:00,
2013-06-19 06:31:00,76.0,74.0,29.93,West,279,0.0,2.0,93,0.00,,,0.00,weatherlink.com 1.10,2013-06-19 10:31:00,
2013-06-19 06:46:00,75.6,74.0,29.93,West,276,0.0,2.0,95,0.01,,,0.01,weatherlink.com 1.10,2013-06-19 10:46:00,
2013-06-19 07:01:00,75.4,74.0,29.94,WNW,286,0.0,1.0,96,0.01,,,0.01,weatherlink.com 1.10,2013-06-19 11:01:00,
2013-06-19 07:17:00,75.9,75.0,29.95,WNW,286,0.0,0.0,97,0.01,,,0.01,weatherlink.com 1.10,2013-06-19 11:17:00,
2013-06-19 07:32:00,76.2,75.0,29.95,West,276,0.0,1.0,95,0.01,,,0.01,weatherlink.com 1.10,2013-06-19 11:32:00,
2013-06-19 07:47:00,76.5,75.0,29.95,West,278,0.0,1.0,95,0.00,,,0.01,weatherlink.com 1.10,2013-06-19 11:47:00,
2013-06-19 08:02:00,77.9,76.0,29.96,WSW,248,0.0,2.0,92,0.00,,,0.01,weatherlink.com 1.10,2013-06-19 12:02:00,
2013-06-19 08:17:00,78.9,76.0,29.96,West,264,1.0,3.0,90,0.00,,,0.01,weatherlink.com 1.10,2013-06-19 12:17:00,
2013-06-19 08:32:00,79.2,75.0,29.96,WNW,293,0.0,3.0,87,0.00,,,0.01,weatherlink.com 1.10,2013-06-19 12:32:00,
2013-06-19 08:47:00,78.9,76.0,29.97,West,269,0.0,3.0,89,0.00,,,0.01,weatherlink.com 1.10,2013-06-19 12:47:00,
2013-06-19 09:02:00,78.8,75.0,29.97,West,274,0.0,4.0,89,0.00,,,0.01,weatherlink.com 1.10,2013-06-19 13:02:00,
2013-06-19 09:17:00,79.0,76.0,29.98,WNW,285,2.0,3.0,89,0.00,,,0.01,weatherlink.com 1.10,2013-06-19 13:17:00,
2013-06-19 09:32:00,79.7,76.0,29.98,WNW,282,0.0,4.0,87,0.00,,,0.01,weatherlink.com 1.10,2013-06-19 13:32:00,
2013-06-19 09:47:00,80.7,76.0,29.97,West,269,0.0,2.0,85,0.00,,,0.01,weatherlink.com 1.10,2013-06-19 13:47:00,
2013-06-19 10:02:00,81.4,77.0,29.97,WSW,238,0.0,2.0,85,0.00,,,0.01,weatherlink.com 1.10,2013-06-19 14:02:00,
2013-06-19 10:17:00,81.3,76.0,29.97,West,265,1.0,5.0,83,0.00,,,0.01,weatherlink.com 1.10,2013-06-19 14:17:00,
2013-06-19 10:32:00,81.1,76.0,29.98,West,273,1.0,2.0,83,0.00,,,0.01,weatherlink.com 1.10,2013-06-19 14:32:00,
2013-06-19 10:47:00,81.0,75.0,29.98,WNW,290,0.0,4.0,83,0.00,,,0.01,weatherlink.com 1.10,2013-06-19 14:47:00,
2013-06-19 11:02:00,81.3,75.0,29.98,ENE,72,1.0,3.0,82,0.00,,,0.01,weatherlink.com 1.10,2013-06-19 15:02:00,
2013-06-19 11:17:00,81.1,76.0,29.99,West,269,0.0,2.0,83,0.00,,,0.01,weatherlink.com 1.10,2013-06-19 15:17:00,
2013-06-19 11:32:00,81.4,76.0,29.99,West,270,0.0,1.0,84,0.00,,,0.01,weatherlink.com 1.10,2013-06-19 15:32:00,
2013-06-19 11:47:00,82.5,77.0,29.99,SSW,207,0.0,1.0,82,0.00,,,0.01,weatherlink.com 1.10,2013-06-19 15:47:00,
2013-06-19 12:02:00,82.9,77.0,29.99,SW,217,0.0,1.0,81,0.00,,,0.01,weatherlink.com 1.10,2013-06-19 16:02:00,
2013-06-19 12:17:00,81.0,76.0,29.99,WSW,255,0.0,1.0,85,0.01,,,0.02,weatherlink.com 1.10,2013-06-19 16:17:00,
2013-06-19 12:32:00,80.5,76.0,29.99,NW,321,0.0,3.0,85,0.01,,,0.02,weatherlink.com 1.10,2013-06-19 16:32:00,
2013-06-19 12:47:00,78.9,76.0,30.00,SW,233,0.0,3.0,89,0.08,,,0.09,weatherlink.com 1.10,2013-06-19 16:47:00,
2013-06-19 13:02:00,77.1,75.0,29.99,WSW,254,0.0,1.0,94,0.23,,,0.24,weatherlink.com 1.10,2013-06-19 17:02:00,
2013-06-19 13:17:00,77.1,76.0,29.99,West,265,0.0,0.0,96,0.23,,,0.25,weatherlink.com 1.10,2013-06-19 17:17:00,
2013-06-19 13:32:00,77.5,76.0,29.99,ESE,112,0.0,1.0,96,0.23,,,0.25,weatherlink.com 1.10,2013-06-19 17:32:00,
2013-06-19 13:47:00,79.4,76.0,29.99,SE,139,1.0,4.0,90,0.15,,,0.25,weatherlink.com 1.10,2013-06-19 17:47:00,
2013-06-19 14:02:00,79.1,76.0,29.99,SE,135,0.0,2.0,89,0.00,,,0.25,weatherlink.com 1.10,2013-06-19 18:02:00,
2013-06-19 14:17:00,78.1,75.0,29.98,SSE,148,1.0,2.0,91,0.00,,,0.25,weatherlink.com 1.10,2013-06-19 18:17:00,
2013-06-19 14:32:00,80.0,76.0,29.98,NW,312,3.0,4.0,88,0.00,,,0.25,weatherlink.com 1.10,2013-06-19 18:32:00,
2013-06-19 14:47:00,79.3,75.0,29.98,SE,134,0.0,3.0,86,0.00,,,0.25,weatherlink.com 1.10,2013-06-19 18:47:00,
2013-06-19 15:02:00,78.9,76.0,29.98,SE,133,0.0,2.0,89,0.00,,,0.25,weatherlink.com 1.10,2013-06-19 19:02:00,
2013-06-19 15:17:00,78.5,75.0,29.98,East,84,0.0,2.0,90,0.00,,,0.25,weatherlink.com 1.10,2013-06-19 19:17:00,
2013-06-19 15:32:00,78.5,76.0,29.97,SSE,155,0.0,0.0,91,0.00,,,0.25,weatherlink.com 1.10,2013-06-19 19:32:00,
2013-06-19 15:47:00,78.5,75.0,29.99,SE,141,0.0,1.0,89,0.00,,,0.25,weatherlink.com 1.10,2013-06-19 19:47:00,
2013-06-19 16:02:00,77.9,75.0,29.98,ESE,119,0.0,1.0,90,0.00,,,0.25,weatherlink.com 1.10,2013-06-19 20:02:00,
2013-06-19 16:17:00,76.9,74.0,29.99,ESE,113,0.0,1.0,91,0.01,,,0.26,weatherlink.com 1.10,2013-06-19 20:17:00,
2013-06-19 16:32:00,76.5,75.0,30.00,ESE,113,0.0,0.0,94,0.02,,,0.27,weatherlink.com 1.10,2013-06-19 20:32:00,
2013-06-19 16:47:00,76.1,75.0,30.00,ESE,113,0.0,0.0,95,0.04,,,0.29,weatherlink.com 1.10,2013-06-19 20:47:00,
2013-06-19 17:02:00,75.6,74.0,30.00,ESE,113,0.0,1.0,95,0.05,,,0.30,weatherlink.com 1.10,2013-06-19 21:02:00,
2013-06-19 17:17:00,75.1,74.0,30.00,ESE,122,0.0,1.0,96,0.04,,,0.30,weatherlink.com 1.10,2013-06-19 21:17:00,
2013-06-19 17:32:00,74.9,74.0,29.99,SE,140,0.0,1.0,96,0.04,,,0.31,weatherlink.com 1.10,2013-06-19 21:32:00,
2013-06-19 17:47:00,75.0,74.0,30.00,ESE,103,0.0,1.0,97,0.02,,,0.31,weatherlink.com 1.10,2013-06-19 21:47:00,
2013-06-19 18:02:00,74.8,74.0,30.01,SSW,198,0.0,1.0,97,0.01,,,0.31,weatherlink.com 1.10,2013-06-19 22:02:00,
2013-06-19 18:17:00,75.0,74.0,30.01,SSW,199,0.0,0.0,97,0.01,,,0.31,weatherlink.com 1.10,2013-06-19 22:17:00,
2013-06-19 18:32:00,75.1,74.0,30.01,SSW,199,0.0,0.0,97,0.00,,,0.31,weatherlink.com 1.10,2013-06-19 22:32:00,
2013-06-19 18:47:00,74.8,74.0,30.01,SSW,198,0.0,0.0,96,0.00,,,0.31,weatherlink.com 1.10,2013-06-19 22:47:00,
2013-06-19 19:02:00,74.7,74.0,30.00,ENE,70,0.0,1.0,97,0.00,,,0.31,weatherlink.com 1.10,2013-06-19 23:02:00,
2013-06-19 19:17:00,74.4,74.0,29.99,SE,127,0.0,1.0,97,0.00,,,0.31,weatherlink.com 1.10,2013-06-19 23:17:00,
2013-06-19 19:32:00,74.2,73.0,30.01,ESE,122,1.0,1.0,97,0.00,,,0.31,weatherlink.com 1.10,2013-06-19 23:32:00,
2013-06-19 19:48:00,74.0,73.0,29.99,SE,130,0.0,1.0,97,0.00,,,0.31,weatherlink.com 1.10,2013-06-19 23:48:00,
2013-06-19 20:02:00,73.8,73.0,30.02,West,268,0.0,3.0,97,0.01,,,0.32,weatherlink.com 1.10,2013-06-20 00:02:00,
2013-06-19 20:18:00,73.8,73.0,30.03,West,268,0.0,1.0,97,0.01,,,0.32,weatherlink.com 1.10,2013-06-20 00:18:00,
2013-06-19 20:33:00,73.5,73.0,30.04,West,268,0.0,0.0,97,0.01,,,0.32,weatherlink.com 1.10,2013-06-20 00:33:00,
2013-06-19 20:48:00,73.5,73.0,30.03,West,268,0.0,1.0,98,0.03,,,0.34,weatherlink.com 1.10,2013-06-20 00:48:00,
2013-06-19 21:18:00,73.1,73.0,30.05,SE,131,0.0,1.0,98,0.04,,,0.36,weatherlink.com 1.10,2013-06-20 01:18:00,
2013-06-19 21:33:00,73.0,72.0,30.05,SE,131,0.0,1.0,98,0.04,,,0.36,weatherlink.com 1.10,2013-06-20 01:33:00,
2013-06-19 21:48:00,73.0,72.0,30.05,SE,131,0.0,0.0,98,0.02,,,0.36,weatherlink.com 1.10,2013-06-20 01:48:00,
2013-06-19 22:03:00,73.0,72.0,30.06,SE,131,0.0,1.0,98,0.00,,,0.36,weatherlink.com 1.10,2013-06-20 02:03:00,
2013-06-19 22:18:00,73.0,72.0,30.06,SE,131,0.0,0.0,98,0.00,,,0.36,weatherlink.com 1.10,2013-06-20 02:18:00,
2013-06-19 22:33:00,72.9,72.0,30.06,SE,135,0.0,2.0,98,0.00,,,0.36,weatherlink.com 1.10,2013-06-20 02:33:00,
2013-06-19 22:48:00,72.8,72.0,30.07,SE,145,0.0,0.0,98,0.00,,,0.36,weatherlink.com 1.10,2013-06-20 02:48:00,
2013-06-19 23:03:00,72.8,72.0,30.07,NNW,336,0.0,1.0,98,0.00,,,0.36,weatherlink.com 1.10,2013-06-20 03:03:00,
2013-06-19 23:18:00,72.7,72.0,30.07,West,274,0.0,1.0,98,0.00,,,0.36,weatherlink.com 1.10,2013-06-20 03:18:00,
2013-06-19 23:33:00,72.6,72.0,30.07,SW,235,0.0,1.0,98,0.00,,,0.36,weatherlink.com 1.10,2013-06-20 03:33:00,
2013-06-19 23:48:00,72.6,72.0,30.07,NE,49,0.0,2.0,98,0.00,,,0.36,weatherlink.com 1.10,2013-06-20 03:48:00,